Time;durP1;ratioP1;P1;durP2;ratioP2;P2;SDS_P1;SDS_P2;PMS_P1;PMS_P2;Temp;Humidity;BMP_temperature;BMP_pressure;BME280_temperature;BME280_humidity;BME280_pressure;Samples;Min_cycle;Max_cycle;Signal;HPM_P1;HPM_P2
2022/12/20 00:01:32;;;;;;;;;;;;;;;0.92;65.75;102326.56;5324518;32;35046;-77
2022/12/20 00:04:34;;;;;;;;;;;;;;;0.49;67.08;102340.72;5340384;32;33450;-74
2022/12/20 00:07:36;;;;;;;;;;;;;;;1.65;64.53;102345.16;5319342;32;33747;-77
2022/12/20 00:10:39;;;;;;;;;;;;;;;1.63;64.06;102347.69;5331432;32;33897;-76
2022/12/20 00:13:41;;;;;;;;;;;;;;;1.39;65.47;102354.75;5332838;32;34432;-74
2022/12/20 00:16:42;;;;;;;;;;;;;;;0.40;67.58;102365.41;5324285;32;33939;-73
2022/12/20 00:19:44;;;;;;;;;;;;;;;0.64;68.48;102360.16;5340364;32;34660;-76
2022/12/20 00:22:46;;;;;;;;;;;;;;;1.11;66.98;102358.22;5324370;32;43324;-77
2022/12/20 00:25:48;;;;;;;;;;;;;;;0.83;66.40;102362.50;5341066;32;33501;-76
2022/12/20 00:28:50;;;;;;;;;;;;;;;0.60;67.39;102359.19;5322365;32;34378;-73
2022/12/20 00:31:52;;;;;;;;;;;;;;;0.56;67.01;102357.31;5325900;32;34992;-76
2022/12/20 00:34:54;;;;;;;;;;;;;;;1.32;64.98;102341.63;5317704;32;33107;-73
2022/12/20 00:37:56;;;;;;;;;;;;;;;1.93;63.76;102341.59;5323856;32;33286;-73
2022/12/20 00:41:05;;;;;;;;;;;;;;;1.61;63.73;102339.88;5340367;32;33488;-76
2022/12/20 00:44:07;;;;;;;;;;;;;;;1.17;65.78;102340.28;5322266;32;34174;-73
2022/12/20 00:47:09;;;;;;;;;;;;;;;1.48;63.77;102337.78;5337996;32;33480;-77
2022/12/20 00:50:12;;;;;;;;;;;;;;;1.60;64.36;102332.94;5315131;32;34198;-75
2022/12/20 00:53:14;;;;;;;;;;;;;;;1.76;63.07;102308.31;5313335;32;34430;-72
2022/12/20 00:56:21;;;;;;;;;;;;;;;1.18;65.56;102319.59;5336405;32;45481;-77
2022/12/20 00:59:24;;;;;;;;;;;;;;;2.12;62.77;102300.63;5322626;32;34144;-75
2022/12/20 01:02:26;;;;;;;;;;;;;;;2.05;62.62;102293.53;5342266;32;33892;-76
2022/12/20 01:05:28;;;;;;;;;;;;;;;2.41;60.80;102297.91;5321522;32;33969;-74
2022/12/20 01:08:30;;;;;;;;;;;;;;;1.78;62.29;102298.88;5325357;32;35199;-72
2022/12/20 01:11:33;;;;;;;;;;;;;;;1.95;61.79;102296.75;5321421;32;33466;-76
2022/12/20 01:14:35;;;;;;;;;;;;;;;2.30;61.18;102292.44;5320158;32;34471;-72
2022/12/20 01:17:37;;;;;;;;;;;;;;;1.95;62.41;102291.56;5339392;32;33408;-76
2022/12/20 01:20:39;;;;;;;;;;;;;;;1.57;61.97;102293.97;5321127;32;33691;-76
2022/12/20 01:23:41;;;;;;;;;;;;;;;1.60;62.11;102296.62;5340588;32;34280;-72
2022/12/20 01:26:43;;;;;;;;;;;;;;;2.14;61.45;102291.19;5311397;32;32037;-76
2022/12/20 01:29:45;;;;;;;;;;;;;;;1.54;62.35;102293.88;5337473;32;33514;-72
2022/12/20 01:32:46;;;;;;;;;;;;;;;2.50;60.79;102279.97;5322566;32;44422;-75
2022/12/20 01:35:58;;;;;;;;;;;;;;;1.99;61.03;102276.94;5324007;32;33433;-74
2022/12/20 01:39:02;;;;;;;;;;;;;;;2.65;60.08;102262.16;5340499;32;34134;-76
2022/12/20 01:42:04;;;;;;;;;;;;;;;1.94;62.63;102263.00;5325467;32;33708;-75
2022/12/20 01:45:08;;;;;;;;;;;;;;;2.20;60.63;102258.47;5343980;32;35441;-76
2022/12/20 01:48:09;;;;;;;;;;;;;;;2.37;61.42;102249.34;5312494;32;33946;-73
2022/12/20 01:51:11;;;;;;;;;;;;;;;2.79;59.67;102243.44;5320229;32;33907;-75
2022/12/20 01:54:34;;;;;;;;;;;;;;;2.86;59.15;102242.72;5322600;32;34822;-74
2022/12/20 01:57:50;;;;;;;;;;;;;;;2.75;59.60;102229.47;5326516;32;33300;-76
2022/12/20 02:00:52;;;;;;;;;;;;;;;2.67;59.88;102225.84;5341813;32;45470;-73
2022/12/20 02:03:54;;;;;;;;;;;;;;;2.96;58.82;102213.47;5312573;32;33714;-77
2022/12/20 02:06:56;;;;;;;;;;;;;;;2.15;60.67;102203.88;5338312;32;34007;-73
2022/12/20 02:09:58;;;;;;;;;;;;;;;2.25;61.68;102199.75;5326136;32;34539;-72
2022/12/20 02:13:05;;;;;;;;;;;;;;;1.83;61.79;102203.94;5323503;32;34428;-72
2022/12/20 02:16:06;;;;;;;;;;;;;;;2.04;61.26;102202.72;5340447;32;33924;-73
2022/12/20 02:19:13;;;;;;;;;;;;;;;2.55;60.28;102202.19;5325897;32;33620;-73
2022/12/20 02:22:20;;;;;;;;;;;;;;;2.65;60.10;102202.47;5340342;32;33659;-76
2022/12/20 02:25:41;;;;;;;;;;;;;;;2.42;60.40;102194.12;5322957;32;44558;-76
2022/12/20 02:28:46;;;;;;;;;;;;;;;2.28;60.60;102195.53;5324914;32;32477;-73
2022/12/20 02:31:54;;;;;;;;;;;;;;;2.33;60.23;102203.44;5335535;32;44886;-76
2022/12/20 02:34:56;;;;;;;;;;;;;;;2.24;60.53;102200.59;5320200;32;33792;-73
2022/12/20 02:37:59;;;;;;;;;;;;;;;1.76;62.39;102206.34;5339204;32;33804;-76
2022/12/20 02:41:05;;;;;;;;;;;;;;;2.23;60.78;102194.53;5323140;32;33898;-76
2022/12/20 02:47:33;;;;;;;;;;;;;;;1.21;63.96;102213.47;5337564;32;35249;-74
2022/12/20 02:50:36;;;;;;;;;;;;;;;2.13;61.20;102206.44;5311850;32;34049;-73
2022/12/20 02:53:38;;;;;;;;;;;;;;;2.26;60.87;102198.94;5329986;32;34450;-73
2022/12/20 02:57:15;;;;;;;;;;;;;;;1.91;62.21;102188.56;5310360;32;34626;-74
2022/12/20 03:00:18;;;;;;;;;;;;;;;1.78;62.33;102176.13;5272569;32;34237;-73
2022/12/20 03:03:23;;;;;;;;;;;;;;;1.96;61.47;102171.41;5333538;32;33731;-76
2022/12/20 03:06:25;;;;;;;;;;;;;;;1.90;62.20;102179.91;5322379;32;33581;-77
2022/12/20 03:09:27;;;;;;;;;;;;;;;2.07;61.34;102174.28;5339205;32;33479;-77
2022/12/20 03:12:29;;;;;;;;;;;;;;;1.61;62.81;102162.72;5325439;32;34048;-73
2022/12/20 03:15:31;;;;;;;;;;;;;;;1.96;61.78;102155.84;5339415;32;33920;-72
2022/12/20 03:18:33;;;;;;;;;;;;;;;1.99;61.44;102155.91;5326676;32;33951;-72
2022/12/20 03:21:35;;;;;;;;;;;;;;;1.76;62.13;102154.50;5329445;32;34242;-75
2022/12/20 03:24:37;;;;;;;;;;;;;;;1.85;61.88;102157.31;5322490;32;33885;-76
2022/12/20 03:27:39;;;;;;;;;;;;;;;1.72;62.67;102158.72;5322204;32;33743;-73
2022/12/20 03:30:41;;;;;;;;;;;;;;;1.65;62.37;102153.34;5336574;32;33964;-77
2022/12/20 03:33:43;;;;;;;;;;;;;;;1.75;62.23;102142.37;5317361;32;33691;-75
2022/12/20 03:36:45;;;;;;;;;;;;;;;1.82;61.96;102146.88;5337915;32;34465;-75
2022/12/20 03:39:47;;;;;;;;;;;;;;;2.11;61.02;102148.44;5323254;32;46283;-76
2022/12/20 03:42:49;;;;;;;;;;;;;;;1.92;61.50;102143.66;5329215;32;32428;-73
2022/12/20 03:45:50;;;;;;;;;;;;;;;1.81;62.08;102158.09;5336923;32;33950;-76
2022/12/20 03:48:52;;;;;;;;;;;;;;;2.05;61.85;102153.47;5322636;32;34282;-73
2022/12/20 03:51:54;;;;;;;;;;;;;;;2.18;61.10;102152.03;5318407;32;33301;-72
2022/12/20 03:54:56;;;;;;;;;;;;;;;2.04;60.84;102143.94;5322267;32;34005;-74
2022/12/20 03:57:58;;;;;;;;;;;;;;;2.17;60.88;102152.88;5341252;32;33593;-77
2022/12/20 04:01:00;;;;;;;;;;;;;;;1.85;61.93;102153.00;5325599;32;34056;-73
2022/12/20 04:04:03;;;;;;;;;;;;;;;2.09;61.25;102146.66;5326035;32;34656;-73
2022/12/20 04:07:05;;;;;;;;;;;;;;;1.88;61.92;102141.84;5336479;32;33765;-74
2022/12/20 04:10:07;;;;;;;;;;;;;;;1.79;62.29;102133.81;5322796;32;33663;-76
2022/12/20 04:13:09;;;;;;;;;;;;;;;1.79;62.21;102136.41;5339878;32;33900;-74
2022/12/20 04:16:13;;;;;;;;;;;;;;;1.96;61.86;102132.53;5324599;32;32494;-78
2022/12/20 04:19:15;;;;;;;;;;;;;;;1.88;61.83;102119.38;5340257;32;33289;-76
2022/12/20 04:22:17;;;;;;;;;;;;;;;1.80;61.71;102107.03;5324689;32;46064;-77
2022/12/20 04:25:19;;;;;;;;;;;;;;;1.59;62.79;102103.09;5323148;32;34246;-74
2022/12/20 04:28:21;;;;;;;;;;;;;;;1.47;63.32;102095.00;5338148;32;33956;-76
2022/12/20 04:31:23;;;;;;;;;;;;;;;1.63;62.52;102098.88;5318808;32;33919;-75
2022/12/20 04:34:25;;;;;;;;;;;;;;;1.25;63.07;102093.59;5336722;32;33299;-72
2022/12/20 04:37:27;;;;;;;;;;;;;;;1.56;62.83;102089.19;5311056;32;34648;-76
2022/12/20 04:40:29;;;;;;;;;;;;;;;1.82;62.40;102088.13;5338850;32;34514;-73
2022/12/20 04:43:31;;;;;;;;;;;;;;;1.72;62.72;102093.03;5324808;32;33408;-77
2022/12/20 04:46:33;;;;;;;;;;;;;;;2.09;61.49;102107.75;5323313;32;34355;-76
2022/12/20 04:49:35;;;;;;;;;;;;;;;1.85;61.67;102103.72;5337905;32;34033;-75
2022/12/20 04:55:57;;;;;;;;;;;;;;;1.87;61.95;102104.66;5339788;32;33927;-76
2022/12/20 04:59:01;;;;;;;;;;;;;;;1.81;62.23;102109.69;5321846;32;33840;-75
2022/12/20 05:02:03;;;;;;;;;;;;;;;1.63;62.66;102122.19;5334895;32;33521;-76
2022/12/20 05:05:05;;;;;;;;;;;;;;;2.07;61.24;102115.50;5330835;32;34447;-77
2022/12/20 05:08:07;;;;;;;;;;;;;;;2.52;60.28;102116.50;5321527;32;33820;-73
2022/12/20 05:11:09;;;;;;;;;;;;;;;2.35;60.79;102121.31;5338961;32;33823;-76
2022/12/20 05:14:11;;;;;;;;;;;;;;;2.22;60.56;102124.47;5322198;32;33303;-77
2022/12/20 05:17:13;;;;;;;;;;;;;;;1.94;62.64;102126.44;5339928;32;34311;-75
2022/12/20 05:20:15;;;;;;;;;;;;;;;2.26;61.24;102127.19;5323838;32;34665;-75
2022/12/20 05:26:37;;;;;;;;;;;;;;;2.19;60.99;102127.88;5338327;32;36719;-75
2022/12/20 05:29:39;;;;;;;;;;;;;;;2.36;60.20;102136.03;5321629;32;34354;-78
2022/12/20 05:32:41;;;;;;;;;;;;;;;1.72;62.07;102137.97;5322968;32;33827;-76
2022/12/20 05:35:43;;;;;;;;;;;;;;;1.98;61.98;102136.00;5322396;32;34155;-74
2022/12/20 05:38:45;;;;;;;;;;;;;;;2.31;60.15;102133.31;5338555;32;32990;-76
2022/12/20 05:41:47;;;;;;;;;;;;;;;2.77;59.21;102121.34;5323909;32;44603;-76
2022/12/20 05:44:49;;;;;;;;;;;;;;;2.21;61.01;102136.56;5310109;32;34038;-76
2022/12/20 05:47:51;;;;;;;;;;;;;;;2.81;59.02;102137.84;5338026;32;33900;-73
2022/12/20 05:50:53;;;;;;;;;;;;;;;2.63;59.48;102128.84;5311858;32;34570;-73
2022/12/20 05:53:55;;;;;;;;;;;;;;;2.36;60.37;102126.53;5316658;32;33837;-73
2022/12/20 05:56:57;;;;;;;;;;;;;;;2.63;59.10;102128.84;5324413;32;34221;-73
2022/12/20 05:59:59;;;;;;;;;;;;;;;2.46;59.66;102114.63;5336756;32;32594;-75
2022/12/20 06:03:01;;;;;;;;;;;;;;;2.04;60.93;102120.59;5323585;32;36810;-73
2022/12/20 06:06:03;;;;;;;;;;;;;;;2.40;59.99;102104.13;5307974;32;32428;-77
2022/12/20 06:09:12;;;;;;;;;;;;;;;2.23;60.44;102110.66;5331342;32;33702;-76
2022/12/20 06:12:14;;;;;;;;;;;;;;;2.23;60.44;102095.09;5324125;32;33741;-77
2022/12/20 06:15:16;;;;;;;;;;;;;;;2.00;60.93;102092.00;5338334;32;36556;-72
2022/12/20 06:18:18;;;;;;;;;;;;;;;1.82;61.70;102087.25;5323227;32;33961;-73
2022/12/20 06:21:20;;;;;;;;;;;;;;;1.56;62.31;102076.25;5337851;32;33982;-74
2022/12/20 06:24:24;;;;;;;;;;;;;;;1.31;63.00;102087.69;5323387;32;34655;-76
2022/12/20 06:27:26;;;;;;;;;;;;;;;1.79;62.41;102087.16;5324449;32;34349;-71
2022/12/20 06:30:28;;;;;;;;;;;;;;;1.60;62.89;102089.28;5333023;32;32560;-71
2022/12/20 06:33:35;;;;;;;;;;;;;;;1.90;61.90;102070.13;5322597;32;33326;-71
2022/12/20 06:36:37;;;;;;;;;;;;;;;1.98;61.37;102091.06;5327788;32;34353;-77
2022/12/20 06:39:39;;;;;;;;;;;;;;;1.65;62.63;102086.81;5322824;32;34793;-76
2022/12/20 06:42:41;;;;;;;;;;;;;;;1.72;62.55;102080.94;5334807;32;34545;-73
2022/12/20 06:45:43;;;;;;;;;;;;;;;1.59;62.78;102084.94;5329014;32;34650;-70
2022/12/20 06:48:45;;;;;;;;;;;;;;;1.25;64.03;102074.59;5321314;32;34050;-75
2022/12/20 06:51:47;;;;;;;;;;;;;;;1.97;61.71;102073.75;5309516;32;45782;-70
2022/12/20 06:54:48;;;;;;;;;;;;;;;1.57;62.58;102076.28;5325655;32;34031;-68
2022/12/20 06:57:50;;;;;;;;;;;;;;;1.53;62.62;102066.66;5335337;32;34427;-67
2022/12/20 07:00:53;;;;;;;;;;;;;;;1.66;62.62;102064.37;5326305;32;34673;-69
2022/12/20 07:03:55;;;;;;;;;;;;;;;1.37;63.39;102054.19;5334021;32;33228;-72
2022/12/20 07:06:57;;;;;;;;;;;;;;;1.44;63.34;102052.62;5333715;32;33522;-67
2022/12/20 07:09:59;;;;;;;;;;;;;;;1.51;62.84;102055.38;5325403;32;34517;-81
2022/12/20 07:13:01;;;;;;;;;;;;;;;1.68;62.58;102053.22;5326661;32;33549;-82
2022/12/20 07:16:03;;;;;;;;;;;;;;;1.75;62.54;102049.94;5327273;32;33347;-74
2022/12/20 07:19:05;;;;;;;;;;;;;;;1.65;62.86;102055.72;5342214;32;36745;-80
2022/12/20 07:22:07;;;;;;;;;;;;;;;1.69;62.63;102047.19;5328675;32;32410;-76
2022/12/20 07:25:10;;;;;;;;;;;;;;;1.88;62.55;102064.94;5335816;32;34750;-75
2022/12/20 07:28:12;;;;;;;;;;;;;;;1.97;62.47;102065.97;5328268;32;31757;-67
2022/12/20 07:31:14;;;;;;;;;;;;;;;2.28;60.60;102060.63;5328184;32;34313;-69
2022/12/20 07:34:16;;;;;;;;;;;;;;;1.93;61.64;102066.72;5339462;32;33151;-67
2022/12/20 07:37:18;;;;;;;;;;;;;;;1.79;61.99;102072.47;5321679;32;47271;-75
2022/12/20 07:40:20;;;;;;;;;;;;;;;2.16;60.83;102063.81;5336277;32;35789;-70
2022/12/20 07:43:22;;;;;;;;;;;;;;;2.91;58.67;102061.91;5326858;32;33396;-69
2022/12/20 07:46:24;;;;;;;;;;;;;;;2.83;58.37;102056.53;5339310;32;34896;-72
2022/12/20 07:49:26;;;;;;;;;;;;;;;2.52;59.72;102062.00;5335447;32;33422;-81
2022/12/20 07:52:28;;;;;;;;;;;;;;;2.69;58.90;102055.41;5314722;32;35506;-71
2022/12/20 07:55:30;;;;;;;;;;;;;;;2.17;60.46;102055.19;5340000;32;34679;-68
2022/12/20 07:58:32;;;;;;;;;;;;;;;3.05;57.64;102059.56;5326797;32;33473;-67
2022/12/20 08:01:34;;;;;;;;;;;;;;;2.62;58.33;102054.41;5341783;32;33167;-71
2022/12/20 08:04:36;;;;;;;;;;;;;;;2.69;58.09;102051.06;5329462;32;33301;-80
2022/12/20 08:07:39;;;;;;;;;;;;;;;2.71;58.44;102048.53;5338301;32;34571;-85
2022/12/20 08:10:41;;;;;;;;;;;;;;;2.60;58.96;102044.84;5321000;32;33215;-68
2022/12/20 08:13:45;;;;;;;;;;;;;;;2.63;58.16;102027.59;5327286;32;34074;-69
2022/12/20 08:16:52;;;;;;;;;;;;;;;2.63;58.19;102026.72;5340727;32;45083;-71
2022/12/20 08:19:56;;;;;;;;;;;;;;;2.57;58.06;102024.88;5328044;32;33173;-74
2022/12/20 08:22:58;;;;;;;;;;;;;;;2.56;58.67;102019.66;5340511;32;35010;-72
2022/12/20 08:26:00;;;;;;;;;;;;;;;2.95;57.65;102019.53;5314207;32;33179;-76
2022/12/20 08:29:02;;;;;;;;;;;;;;;2.96;57.20;102016.06;5326237;32;33186;-74
2022/12/20 08:32:04;;;;;;;;;;;;;;;2.87;57.58;102021.13;5331210;32;34487;-72
2022/12/20 08:35:06;;;;;;;;;;;;;;;2.47;58.60;102006.50;5322824;32;33174;-68
2022/12/20 08:38:08;;;;;;;;;;;;;;;2.84;57.97;102018.47;5324541;32;33606;-73
2022/12/20 08:41:11;;;;;;;;;;;;;;;3.03;57.42;102017.06;5329889;32;33295;-73
2022/12/20 08:44:13;;;;;;;;;;;;;;;2.92;57.88;102009.97;5336984;32;33313;-72
2022/12/20 08:47:15;;;;;;;;;;;;;;;3.40;56.11;102008.19;5326755;32;34505;-69
2022/12/20 08:50:18;;;;;;;;;;;;;;;3.14;56.62;102023.34;5324035;32;44369;-71
2022/12/20 08:53:20;;;;;;;;;;;;;;;2.47;57.95;102019.47;5325884;32;30711;-72
2022/12/20 08:56:22;;;;;;;;;;;;;;;3.18;56.00;102013.03;5312351;32;33217;-72
2022/12/20 08:59:25;;;;;;;;;;;;;;;2.82;56.85;102001.97;5321836;32;35543;-75
2022/12/20 09:02:27;;;;;;;;;;;;;;;2.37;58.72;102002.84;5323159;32;34320;-66
2022/12/20 09:05:29;;;;;;;;;;;;;;;2.87;57.52;102013.31;5336006;32;36095;-68
2022/12/20 09:08:32;;;;;;;;;;;;;;;3.14;56.00;102008.63;5322467;32;33997;-67
2022/12/20 09:11:34;;;;;;;;;;;;;;;3.31;55.58;102006.31;5311660;32;32325;-71
2022/12/20 09:14:36;;;;;;;;;;;;;;;3.77;54.54;102001.81;5337457;32;33167;-66
2022/12/20 09:17:38;;;;;;;;;;;;;;;3.24;55.63;102014.84;5323650;32;32675;-67
2022/12/20 09:20:44;;;;;;;;;;;;;;;3.57;54.82;102014.53;5338285;32;33278;-69
2022/12/20 09:23:46;;;;;;;;;;;;;;;3.37;55.42;102010.75;5324126;32;33435;-76
2022/12/20 09:26:48;;;;;;;;;;;;;;;3.78;54.29;102008.75;5334815;32;44641;-72
2022/12/20 09:29:52;;;;;;;;;;;;;;;3.61;54.33;102005.06;5325681;32;33863;-70
2022/12/20 09:32:55;;;;;;;;;;;;;;;3.05;55.87;102008.47;5322428;32;34749;-74
2022/12/20 09:36:10;;;;;;;;;;;;;;;3.10;56.75;102001.62;5336031;32;34424;-71
2022/12/20 09:39:12;;;;;;;;;;;;;;;3.69;54.92;101982.63;5306347;32;34613;-70
2022/12/20 09:42:14;;;;;;;;;;;;;;;3.22;54.68;101985.34;5336824;32;33218;-68
2022/12/20 09:45:19;;;;;;;;;;;;;;;3.38;55.45;101969.16;5326069;32;44819;-70
2022/12/20 09:48:25;;;;;;;;;;;;;;;4.00;53.49;101958.81;5325798;32;33333;-68
2022/12/20 09:51:53;;;;;;;;;;;;;;;3.89;54.30;101954.31;5295559;32;33203;-69
2022/12/20 09:54:55;;;;;;;;;;;;;;;3.94;53.68;101950.03;5307004;32;45075;-71
2022/12/20 09:58:03;;;;;;;;;;;;;;;3.48;54.55;101946.81;5341424;32;32536;-68
2022/12/20 10:01:35;;;;;;;;;;;;;;;3.98;53.51;101950.06;5324214;32;33321;-72
2022/12/20 10:04:41;;;;;;;;;;;;;;;3.63;54.85;101962.63;5311178;32;33318;-75
2022/12/20 10:07:43;;;;;;;;;;;;;;;3.99;53.26;101940.53;5322309;32;33205;-76
2022/12/20 10:10:50;;;;;;;;;;;;;;;4.16;53.30;101948.56;5327722;32;34225;-74
2022/12/20 10:14:11;;;;;;;;;;;;;;;3.97;53.81;101940.53;5331652;32;46450;-70
2022/12/20 10:17:16;;;;;;;;;;;;;;;4.04;53.71;101928.47;5326218;32;33190;-69
2022/12/20 10:20:21;;;;;;;;;;;;;;;4.67;51.66;101929.16;5315789;32;44917;-67
2022/12/20 10:23:24;;;;;;;;;;;;;;;4.50;51.48;101926.38;5327981;32;34715;-76
2022/12/20 10:26:34;;;;;;;;;;;;;;;4.40;52.37;101921.97;5327375;32;33441;-67
2022/12/20 10:29:36;;;;;;;;;;;;;;;4.50;51.75;101909.03;5324085;32;35772;-69
2022/12/20 10:32:38;;;;;;;;;;;;;;;4.86;51.08;101908.50;5324276;32;34380;-68
2022/12/20 10:35:40;;;;;;;;;;;;;;;5.05;50.30;101899.13;5333436;32;34390;-69
2022/12/20 10:38:43;;;;;;;;;;;;;;;4.76;51.33;101888.44;5317295;32;34690;-72
2022/12/20 10:41:47;;;;;;;;;;;;;;;4.67;51.64;101875.34;5305246;32;33582;-71
2022/12/20 10:44:49;;;;;;;;;;;;;;;5.03;50.99;101873.91;5330782;32;44606;-69
2022/12/20 10:47:57;;;;;;;;;;;;;;;5.53;49.43;101869.00;5322745;32;33368;-72
2022/12/20 10:51:01;;;;;;;;;;;;;;;5.67;49.03;101866.47;5312958;32;33823;-69
2022/12/20 10:54:03;;;;;;;;;;;;;;;5.49;48.80;101875.06;5320413;32;33345;-71
2022/12/20 10:57:18;;;;;;;;;;;;;;;5.70;48.45;101869.97;5335246;32;34597;-73
2022/12/20 11:00:29;;;;;;;;;;;;;;;4.97;49.85;101864.31;5329345;32;44402;-78
2022/12/20 11:03:31;;;;;;;;;;;;;;;5.54;48.60;101835.97;5324008;32;34610;-67
2022/12/20 11:06:36;;;;;;;;;;;;;;;5.13;50.17;101832.28;5338303;32;33233;-72
2022/12/20 11:09:39;;;;;;;;;;;;;;;5.22;49.87;101838.44;5326802;32;34463;-69
2022/12/20 11:12:58;;;;;;;;;;;;;;;5.03;49.64;101832.22;5336679;32;33171;-70
2022/12/20 11:16:00;;;;;;;;;;;;;;;5.28;49.62;101823.69;5329948;32;34530;-69
2022/12/20 11:19:09;;;;;;;;;;;;;;;5.44;48.95;101819.41;5309399;32;34686;-75
2022/12/20 11:22:14;;;;;;;;;;;;;;;5.53;49.24;101824.66;5335272;32;34636;-75
2022/12/20 11:25:19;;;;;;;;;;;;;;;6.23;47.31;101824.03;5325859;32;45777;-76
2022/12/20 11:28:33;;;;;;;;;;;;;;;5.36;49.23;101815.91;5334814;32;33149;-76
2022/12/20 11:31:48;;;;;;;;;;;;;;;5.76;48.17;101814.31;5327824;32;34077;-78
2022/12/20 11:34:52;;;;;;;;;;;;;;;6.23;47.23;101793.56;5325026;32;44704;-79
2022/12/20 11:38:11;;;;;;;;;;;;;;;6.46;46.17;101785.78;5338503;32;33537;-76
2022/12/20 11:41:16;;;;;;;;;;;;;;;6.53;46.57;101781.41;5321394;32;33459;-71
2022/12/20 11:44:34;;;;;;;;;;;;;;;7.02;45.13;101787.47;5335300;32;46104;-74
2022/12/20 11:47:48;;;;;;;;;;;;;;;7.19;44.81;101776.06;5319320;32;33874;-73
2022/12/20 11:50:58;;;;;;;;;;;;;;;7.00;44.93;101780.47;5308641;32;45252;-73
2022/12/20 11:54:18;;;;;;;;;;;;;;;6.82;45.27;101775.28;5314037;32;33476;-79
2022/12/20 11:57:25;;;;;;;;;;;;;;;8.09;42.06;101771.25;5321693;32;44665;-75
2022/12/20 12:00:27;;;;;;;;;;;;;;;7.24;44.26;101777.81;5334328;32;34534;-71
2022/12/20 12:03:34;;;;;;;;;;;;;;;8.32;42.54;101768.50;5319526;32;33538;-76
2022/12/20 12:06:37;;;;;;;;;;;;;;;7.64;42.72;101764.56;5318152;32;34463;-70
2022/12/20 12:09:59;;;;;;;;;;;;;;;7.59;43.59;101768.94;5329428;32;33304;-78
2022/12/20 12:13:16;;;;;;;;;;;;;;;8.71;41.22;101753.34;5325742;32;32968;-75
2022/12/20 12:16:29;;;;;;;;;;;;;;;9.31;39.20;101753.53;5333169;32;45689;-72
2022/12/20 12:19:31;;;;;;;;;;;;;;;8.47;40.62;101756.16;5312018;32;33167;-73
2022/12/20 12:22:33;;;;;;;;;;;;;;;8.11;41.71;101748.56;5326029;32;34385;-72
2022/12/20 12:25:35;;;;;;;;;;;;;;;7.92;42.14;101746.06;5333667;32;34598;-76
2022/12/20 12:28:37;;;;;;;;;;;;;;;7.77;43.02;101750.53;5324002;32;34385;-75
2022/12/20 12:31:39;;;;;;;;;;;;;;;7.81;42.35;101741.78;5335342;32;33027;-73
2022/12/20 12:34:47;;;;;;;;;;;;;;;7.85;42.48;101746.09;5321825;32;34560;-70
2022/12/20 12:37:52;;;;;;;;;;;;;;;7.60;43.01;101737.56;5331762;32;46810;-70
2022/12/20 12:41:00;;;;;;;;;;;;;;;5.76;47.47;101743.88;5332986;32;34335;-70
2022/12/20 12:44:05;;;;;;;;;;;;;;;6.59;46.05;101715.25;5316233;32;34380;-70
2022/12/20 12:47:11;;;;;;;;;;;;;;;6.98;45.33;101722.97;5335781;32;34361;-70
2022/12/20 12:50:22;;;;;;;;;;;;;;;6.92;44.16;101711.69;5303850;32;33807;-74
2022/12/20 12:53:37;;;;;;;;;;;;;;;6.21;46.07;101735.28;5307244;32;45202;-79
2022/12/20 12:56:46;;;;;;;;;;;;;;;6.38;45.72;101722.22;5321046;32;33785;-76
2022/12/20 12:59:49;;;;;;;;;;;;;;;6.36;46.31;101720.47;5323039;32;46590;-75
2022/12/20 13:02:51;;;;;;;;;;;;;;;6.04;46.93;101729.16;5331514;32;34481;-74
2022/12/20 13:05:53;;;;;;;;;;;;;;;5.57;48.13;101732.53;5315996;32;33841;-69
2022/12/20 13:08:55;;;;;;;;;;;;;;;6.26;46.94;101721.37;5333938;32;32884;-68
2022/12/20 13:11:57;;;;;;;;;;;;;;;5.84;47.85;101720.41;5319282;32;33134;-74
2022/12/20 13:15:18;;;;;;;;;;;;;;;6.40;46.59;101717.00;5310817;32;34401;-78
2022/12/20 13:18:23;;;;;;;;;;;;;;;5.80;47.82;101722.16;5335884;32;44726;-78
2022/12/20 13:21:29;;;;;;;;;;;;;;;6.10;47.17;101720.47;5320912;32;33026;-84
2022/12/20 13:24:45;;;;;;;;;;;;;;;5.91;48.08;101722.19;5333704;32;34150;-78
2022/12/20 13:27:48;;;;;;;;;;;;;;;5.86;47.81;101711.75;5320075;32;44520;-83
2022/12/20 13:30:53;;;;;;;;;;;;;;;5.81;47.98;101710.00;5321413;32;32384;-74
2022/12/20 13:33:55;;;;;;;;;;;;;;;5.62;48.23;101706.47;5304153;32;35101;-80
2022/12/20 13:36:58;;;;;;;;;;;;;;;5.76;48.14;101702.16;5277306;32;922007;-75
2022/12/20 13:40:00;;;;;;;;;;;;;;;5.77;48.44;101692.56;5332511;32;33388;-74
2022/12/20 13:43:08;;;;;;;;;;;;;;;4.80;50.82;101693.97;5319316;32;33306;-72
2022/12/20 13:46:10;;;;;;;;;;;;;;;5.19;49.99;101697.63;5329403;32;32569;-70
2022/12/20 13:49:20;;;;;;;;;;;;;;;5.90;48.30;101705.63;5324420;32;35025;-77
2022/12/20 13:52:29;;;;;;;;;;;;;;;5.68;48.73;101699.53;5305759;32;44610;-74
2022/12/20 13:55:38;;;;;;;;;;;;;;;5.78;48.39;101687.34;5334045;32;33770;-71
2022/12/20 13:58:41;;;;;;;;;;;;;;;5.41;49.68;101691.66;5320326;32;34535;-70
2022/12/20 14:02:02;;;;;;;;;;;;;;;5.76;48.26;101685.63;5335203;32;33619;-72
2022/12/20 14:05:09;;;;;;;;;;;;;;;5.64;48.52;101670.81;5321259;32;33184;-72
2022/12/20 14:08:18;;;;;;;;;;;;;;;5.61;48.68;101671.69;5306158;32;34064;-74
2022/12/20 14:11:27;;;;;;;;;;;;;;;5.37;49.14;101662.06;5336622;32;46517;-74
2022/12/20 14:14:29;;;;;;;;;;;;;;;5.52;49.33;101663.84;5302310;32;33105;-72
2022/12/20 14:17:32;;;;;;;;;;;;;;;5.87;48.40;101648.25;5341543;32;33554;-71
2022/12/20 14:20:35;;;;;;;;;;;;;;;5.81;48.22;101643.03;5313826;32;33310;-77
2022/12/20 14:23:38;;;;;;;;;;;;;;;5.61;49.12;101650.84;5322801;32;33137;-77
2022/12/20 14:26:50;;;;;;;;;;;;;;;5.84;48.46;101650.84;5328136;32;33255;-70
2022/12/20 14:29:52;;;;;;;;;;;;;;;5.87;48.50;101650.84;5299101;32;44842;-68
2022/12/20 14:32:55;;;;;;;;;;;;;;;5.75;48.72;101645.62;5327306;32;33258;-71
2022/12/20 14:36:05;;;;;;;;;;;;;;;5.64;48.92;101644.75;5322887;32;34764;-76
2022/12/20 14:39:27;;;;;;;;;;;;;;;5.55;50.51;101637.78;5334608;32;35045;-73
2022/12/20 14:42:33;;;;;;;;;;;;;;;4.76;53.68;101635.78;5321161;32;33289;-71
2022/12/20 14:45:35;;;;;;;;;;;;;;;5.28;52.69;101630.78;5315344;32;33237;-71
2022/12/20 14:48:37;;;;;;;;;;;;;;;5.19;52.61;101642.91;5329481;32;33634;-73
2022/12/20 14:51:39;;;;;;;;;;;;;;;4.99;53.26;101622.00;5291796;32;33299;-71
2022/12/20 14:54:47;;;;;;;;;;;;;;;4.90;53.78;101633.25;5329536;32;33076;-76
2022/12/20 14:58:24;;;;;;;;;;;;;;;5.19;53.02;101625.53;5321159;32;33412;-70
2022/12/20 15:01:27;;;;;;;;;;;;;;;4.92;53.85;101625.44;5310592;32;31883;-76
2022/12/20 15:04:30;;;;;;;;;;;;;;;4.40;55.18;101635.59;5330428;32;34916;-75
2022/12/20 15:07:32;;;;;;;;;;;;;;;4.29;56.01;101644.19;5303701;32;33972;-73
2022/12/20 15:10:34;;;;;;;;;;;;;;;4.80;54.65;101639.28;5336684;32;33999;-75
2022/12/20 15:13:41;;;;;;;;;;;;;;;4.40;55.78;101641.69;5317816;32;33852;-75
2022/12/20 15:16:47;;;;;;;;;;;;;;;3.85;57.93;101638.66;5334413;32;33573;-73
2022/12/20 15:19:49;;;;;;;;;;;;;;;3.92;57.78;101637.84;5326016;32;45132;-75
2022/12/20 15:22:51;;;;;;;;;;;;;;;3.18;59.21;101633.69;5321695;32;34257;-75
2022/12/20 15:25:53;;;;;;;;;;;;;;;4.26;56.75;101631.19;5324608;32;34142;-75
2022/12/20 15:28:55;;;;;;;;;;;;;;;4.47;55.81;101625.22;5319943;32;34264;-75
2022/12/20 15:32:03;;;;;;;;;;;;;;;4.32;56.53;101607.81;5337384;32;34916;-73
2022/12/20 15:35:05;;;;;;;;;;;;;;;4.22;56.37;101608.59;5316137;32;34361;-71
2022/12/20 15:38:12;;;;;;;;;;;;;;;3.88;57.42;101630.03;5327304;32;34542;-73
2022/12/20 15:41:21;;;;;;;;;;;;;;;4.41;56.34;101634.75;5323608;32;34539;-74
2022/12/20 15:44:24;;;;;;;;;;;;;;;4.39;56.09;101649.50;5316956;32;45075;-73
2022/12/20 15:47:26;;;;;;;;;;;;;;;3.74;57.93;101649.00;5324176;32;33820;-72
2022/12/20 15:50:28;;;;;;;;;;;;;;;3.49;58.69;101647.88;5314293;32;33250;-71
2022/12/20 15:53:30;;;;;;;;;;;;;;;3.12;59.24;101657.00;5327578;32;36747;-72
2022/12/20 15:56:32;;;;;;;;;;;;;;;4.14;57.38;101654.53;5324251;32;34349;-74
2022/12/20 15:59:35;;;;;;;;;;;;;;;4.32;56.55;101636.44;5327481;32;33868;-75
2022/12/20 16:02:58;;;;;;;;;;;;;;;4.07;58.00;101647.53;5336551;32;33827;-72
2022/12/20 16:06:00;;;;;;;;;;;;;;;3.46;59.31;101639.16;5325153;32;33804;-75
2022/12/20 16:09:02;;;;;;;;;;;;;;;4.05;57.22;101649.22;5334904;32;34757;-75
2022/12/20 16:12:09;;;;;;;;;;;;;;;4.30;57.27;101638.13;5327389;32;34226;-75